PWSweather.com
Personal Weather Stations
Station Observations
KCOBLACK1
Chalet Park, Black Hawk, CO 80422

Chalet ParkBlack Hawk, CO 80422

Lat: 39.8294, Lon: -105.48

Elevation: 9370

Station Type: Vantage Pro2

http://www.oscaranddeb.com/weather

Latest ConditionsUpdated 10:50:05 AM MDT Friday, Oct 24, 2014
Currently Today's Max Today's Min Today's Average
Temperature 54.0°F12.2°C 54.0°F12.2°C 46.6°F8.1°C 49.1°F9.5°C
Dew Point 14.9°F-9.5°C 19.7°F-6.8°C 14.9°F-9.5°C 17.6°F-8.0°C
Winds 6.0 mph SSW9.7 kmh SSW 17.0 mph SW27.4 kmh SW - 3.6 mph 5.8 kmh
Wind Gusts 13.0 mph20.9 kmh 26.0 mph41.8 kmh - -
Humidity 21% 34% 21% 28%
Pressure 29.99 in1015.6 mb 30.01 in1016.3 mb 29.95 in1014.2 mb -
Hour Temp Dew Point Humidity Winds Wind Gusts Pressure Precip Precip Rate Daily Precip Total
10:50 AM 54.0°F12.2°C 14.9°F-9.5°C 21% 6.0 mph SSW9.7 kmh SSW 13.0 mph20.9 kmh 29.99 in1015.6 mb 0.00 in0.0 mm 0.00 in/hr0.0 mm/hr 0.00 in0.0 mm
10:45 AM 53.6°F12.0°C 15.6°F-9.1°C 22% 9.0 mph SW14.5 kmh SW 13.0 mph20.9 kmh 29.99 in1015.6 mb 0.00 in0.0 mm 0.00 in/hr0.0 mm/hr 0.00 in0.0 mm
10:40 AM 53.4°F11.9°C 16.5°F-8.6°C 23% 10.0 mph SW16.1 kmh SW 13.0 mph20.9 kmh 29.99 in1015.6 mb 0.00 in0.0 mm 0.00 in/hr0.0 mm/hr 0.00 in0.0 mm
10:35 AM 53.3°F11.8°C 15.4°F-9.2°C 22% 10.0 mph SW16.1 kmh SW 12.0 mph19.3 kmh 29.99 in1015.6 mb 0.00 in0.0 mm 0.00 in/hr0.0 mm/hr 0.00 in0.0 mm
10:30 AM 53.2°F11.8°C 15.3°F-9.3°C 22% 12.0 mph SW19.3 kmh SW 16.0 mph25.7 kmh 29.99 in1015.6 mb 0.00 in0.0 mm 0.00 in/hr0.0 mm/hr 0.00 in0.0 mm
10:25 AM 53.0°F11.7°C 15.1°F-9.4°C 22% 7.0 mph SSW11.3 kmh SSW 16.0 mph25.7 kmh 29.99 in1015.6 mb 0.00 in0.0 mm 0.00 in/hr0.0 mm/hr 0.00 in0.0 mm
10:20 AM 52.9°F11.6°C 16.1°F-8.8°C 23% 6.0 mph S9.7 kmh S 13.0 mph20.9 kmh 29.99 in1015.6 mb 0.00 in0.0 mm 0.00 in/hr0.0 mm/hr 0.00 in0.0 mm
10:15 AM 52.7°F11.5°C 15.9°F-8.9°C 23% 1.0 mph SW1.6 kmh SW 13.0 mph20.9 kmh 29.99 in1015.6 mb 0.00 in0.0 mm 0.00 in/hr0.0 mm/hr 0.00 in0.0 mm
10:10 AM 52.4°F11.3°C 15.7°F-9.1°C 23% 6.0 mph SW9.7 kmh SW 17.0 mph27.4 kmh 30.00 in1015.9 mb 0.00 in0.0 mm 0.00 in/hr0.0 mm/hr 0.00 in0.0 mm
10:05 AM 52.1°F11.2°C 17.3°F-8.2°C 25% 6.0 mph SW9.7 kmh SW 12.0 mph19.3 kmh 30.00 in1015.9 mb 0.00 in0.0 mm 0.00 in/hr0.0 mm/hr 0.00 in0.0 mm
10:00 AM 52.3°F11.3°C 15.6°F-9.1°C 23% 2.0 mph SW3.2 kmh SW 11.0 mph17.7 kmh 30.00 in1015.9 mb 0.00 in0.0 mm 0.00 in/hr0.0 mm/hr 0.00 in0.0 mm
09:55 AM 52.3°F11.3°C 15.6°F-9.1°C 23% 5.0 mph SW8.0 kmh SW 12.0 mph19.3 kmh 30.00 in1015.9 mb 0.00 in0.0 mm 0.00 in/hr0.0 mm/hr 0.00 in0.0 mm
09:50 AM 52.2°F11.2°C 15.5°F-9.2°C 23% 3.0 mph SW4.8 kmh SW 12.0 mph19.3 kmh 30.00 in1015.9 mb 0.00 in0.0 mm 0.00 in/hr0.0 mm/hr 0.00 in0.0 mm
09:45 AM 52.1°F11.2°C 15.4°F-9.2°C 23% 6.0 mph SSW9.7 kmh SSW 8.0 mph12.9 kmh 30.01 in1016.3 mb 0.00 in0.0 mm 0.00 in/hr0.0 mm/hr 0.00 in0.0 mm
09:40 AM 51.9°F11.1°C 15.2°F-9.3°C 23% 2.0 mph WSW3.2 kmh WSW 12.0 mph19.3 kmh 30.01 in1016.3 mb 0.00 in0.0 mm 0.00 in/hr0.0 mm/hr 0.00 in0.0 mm
09:35 AM 51.8°F11.0°C 15.1°F-9.4°C 23% 4.0 mph S6.4 kmh S 7.0 mph11.3 kmh 30.01 in1016.3 mb 0.00 in0.0 mm 0.00 in/hr0.0 mm/hr 0.00 in0.0 mm
09:30 AM 51.7°F10.9°C 15.1°F-9.4°C 23% 2.0 mph WNW3.2 kmh WNW 7.0 mph11.3 kmh 30.01 in1016.3 mb 0.00 in0.0 mm 0.00 in/hr0.0 mm/hr 0.00 in0.0 mm
09:25 AM 51.6°F10.9°C 16.0°F-8.9°C 24% Calm Calm 9.0 mph14.5 kmh 30.01 in1016.3 mb 0.00 in0.0 mm 0.00 in/hr0.0 mm/hr 0.00 in0.0 mm
09:20 AM 51.5°F10.8°C 15.9°F-8.9°C 24% Calm Calm 15.0 mph24.1 kmh 30.01 in1016.3 mb 0.00 in0.0 mm 0.00 in/hr0.0 mm/hr 0.00 in0.0 mm
09:15 AM 51.0°F10.6°C 15.4°F-9.2°C 24% 6.0 mph S9.7 kmh S 13.0 mph20.9 kmh 30.01 in1016.3 mb 0.00 in0.0 mm 0.00 in/hr0.0 mm/hr 0.00 in0.0 mm
09:10 AM 50.8°F10.4°C 16.2°F-8.8°C 25% Calm Calm 9.0 mph14.5 kmh 30.01 in1016.3 mb 0.00 in0.0 mm 0.00 in/hr0.0 mm/hr 0.00 in0.0 mm
09:05 AM 50.7°F10.4°C 16.1°F-8.8°C 25% 3.0 mph SSE4.8 kmh SSE 8.0 mph12.9 kmh 30.01 in1016.3 mb 0.00 in0.0 mm 0.00 in/hr0.0 mm/hr 0.00 in0.0 mm
09:00 AM 50.6°F10.3°C 15.1°F-9.4°C 24% Calm Calm 9.0 mph14.5 kmh 30.01 in1016.3 mb 0.00 in0.0 mm 0.00 in/hr0.0 mm/hr 0.00 in0.0 mm
08:55 AM 50.6°F10.3°C 16.9°F-8.4°C 26% Calm Calm 3.0 mph4.8 kmh 30.00 in1015.9 mb 0.00 in0.0 mm 0.00 in/hr0.0 mm/hr 0.00 in0.0 mm
08:50 AM 50.6°F10.3°C 16.0°F-8.9°C 25% 3.0 mph N4.8 kmh N 7.0 mph11.3 kmh 30.00 in1015.9 mb 0.00 in0.0 mm 0.00 in/hr0.0 mm/hr 0.00 in0.0 mm
08:45 AM 50.5°F10.3°C 16.0°F-8.9°C 25% Calm Calm 4.0 mph6.4 kmh 30.00 in1015.9 mb 0.00 in0.0 mm 0.00 in/hr0.0 mm/hr 0.00 in0.0 mm
08:40 AM 50.4°F10.2°C 16.8°F-8.4°C 26% 4.0 mph SSE6.4 kmh SSE 5.0 mph8.0 kmh 30.00 in1015.9 mb 0.00 in0.0 mm 0.00 in/hr0.0 mm/hr 0.00 in0.0 mm
08:35 AM 50.4°F10.2°C 16.8°F-8.4°C 26% Calm Calm 1.0 mph1.6 kmh 30.00 in1015.9 mb 0.00 in0.0 mm 0.00 in/hr0.0 mm/hr 0.00 in0.0 mm
08:30 AM 50.2°F10.1°C 16.6°F-8.6°C 26% Calm Calm 12.0 mph19.3 kmh 29.99 in1015.6 mb 0.00 in0.0 mm 0.00 in/hr0.0 mm/hr 0.00 in0.0 mm
08:25 AM 50.0°F10.0°C 16.4°F-8.7°C 26% 3.0 mph SE4.8 kmh SE 12.0 mph19.3 kmh 29.99 in1015.6 mb 0.00 in0.0 mm 0.00 in/hr0.0 mm/hr 0.00 in0.0 mm
08:20 AM 49.9°F9.9°C 16.3°F-8.7°C 26% Calm Calm 10.0 mph16.1 kmh 29.99 in1015.6 mb 0.00 in0.0 mm 0.00 in/hr0.0 mm/hr 0.00 in0.0 mm
08:15 AM 49.8°F9.9°C 17.1°F-8.3°C 27% Calm Calm 7.0 mph11.3 kmh 29.99 in1015.6 mb 0.00 in0.0 mm 0.00 in/hr0.0 mm/hr 0.00 in0.0 mm
08:10 AM 49.6°F9.8°C 17.0°F-8.3°C 27% 4.0 mph SE6.4 kmh SE 9.0 mph14.5 kmh 29.98 in1015.2 mb 0.00 in0.0 mm 0.00 in/hr0.0 mm/hr 0.00 in0.0 mm
08:05 AM 49.6°F9.8°C 17.8°F-7.9°C 28% 1.0 mph SE1.6 kmh SE 9.0 mph14.5 kmh 29.98 in1015.2 mb 0.00 in0.0 mm 0.00 in/hr0.0 mm/hr 0.00 in0.0 mm
08:00 AM 49.5°F9.7°C 16.9°F-8.4°C 27% 7.0 mph SW11.3 kmh SW 9.0 mph14.5 kmh 29.99 in1015.6 mb 0.00 in0.0 mm 0.00 in/hr0.0 mm/hr 0.00 in0.0 mm
07:55 AM 49.5°F9.7°C 16.9°F-8.4°C 27% 5.0 mph SSW8.0 kmh SSW 15.0 mph24.1 kmh 29.98 in1015.2 mb 0.00 in0.0 mm 0.00 in/hr0.0 mm/hr 0.00 in0.0 mm
07:50 AM 49.4°F9.7°C 16.8°F-8.4°C 27% 4.0 mph SSE6.4 kmh SSE 14.0 mph22.5 kmh 29.98 in1015.2 mb 0.00 in0.0 mm 0.00 in/hr0.0 mm/hr 0.00 in0.0 mm
07:45 AM 49.4°F9.7°C 17.6°F-8.0°C 28% 9.0 mph SE14.5 kmh SE 16.0 mph25.7 kmh 29.96 in1014.6 mb 0.00 in0.0 mm 0.00 in/hr0.0 mm/hr 0.00 in0.0 mm
07:40 AM 49.2°F9.6°C 17.5°F-8.1°C 28% 9.0 mph S14.5 kmh S 15.0 mph24.1 kmh 29.97 in1014.9 mb 0.00 in0.0 mm 0.00 in/hr0.0 mm/hr 0.00 in0.0 mm
07:35 AM 49.0°F9.4°C 18.1°F-7.7°C 29% 14.0 mph SSW22.5 kmh SSW 18.0 mph29.0 kmh 29.97 in1014.9 mb 0.00 in0.0 mm 0.00 in/hr0.0 mm/hr 0.00 in0.0 mm
07:30 AM 49.0°F9.4°C 18.1°F-7.7°C 29% 5.0 mph SW8.0 kmh SW 17.0 mph27.4 kmh 29.96 in1014.6 mb 0.00 in0.0 mm 0.00 in/hr0.0 mm/hr 0.00 in0.0 mm
07:25 AM 49.1°F9.5°C 18.2°F-7.7°C 29% 10.0 mph SSW16.1 kmh SSW 25.0 mph40.2 kmh 29.96 in1014.6 mb 0.00 in0.0 mm 0.00 in/hr0.0 mm/hr 0.00 in0.0 mm
07:20 AM 48.9°F9.4°C 18.0°F-7.8°C 29% 7.0 mph SW11.3 kmh SW 18.0 mph29.0 kmh 29.96 in1014.6 mb 0.00 in0.0 mm 0.00 in/hr0.0 mm/hr 0.00 in0.0 mm
07:15 AM 49.0°F9.4°C 18.1°F-7.7°C 29% 17.0 mph SW27.4 kmh SW 19.0 mph30.6 kmh 29.95 in1014.2 mb 0.00 in0.0 mm 0.00 in/hr0.0 mm/hr 0.00 in0.0 mm
07:10 AM 49.3°F9.6°C 18.4°F-7.6°C 29% 8.0 mph WSW12.9 kmh WSW 21.0 mph33.8 kmh 29.95 in1014.2 mb 0.00 in0.0 mm 0.00 in/hr0.0 mm/hr 0.00 in0.0 mm
07:05 AM 49.6°F9.8°C 18.6°F-7.4°C 29% 11.0 mph SW17.7 kmh SW 26.0 mph41.8 kmh 29.95 in1014.2 mb 0.00 in0.0 mm 0.00 in/hr0.0 mm/hr 0.00 in0.0 mm
07:00 AM 49.4°F9.7°C 18.4°F-7.6°C 29% 9.0 mph WSW14.5 kmh WSW 24.0 mph38.6 kmh 29.95 in1014.2 mb 0.00 in0.0 mm 0.00 in/hr0.0 mm/hr 0.00 in0.0 mm
06:55 AM 49.1°F9.5°C 18.2°F-7.7°C 29% 8.0 mph SW12.9 kmh SW 26.0 mph41.8 kmh 29.95 in1014.2 mb 0.00 in0.0 mm 0.00 in/hr0.0 mm/hr 0.00 in0.0 mm
06:50 AM 48.8°F9.3°C 18.7°F-7.4°C 30% 9.0 mph SSW14.5 kmh SSW 22.0 mph35.4 kmh 29.95 in1014.2 mb 0.00 in0.0 mm 0.00 in/hr0.0 mm/hr 0.00 in0.0 mm
06:45 AM 48.5°F9.2°C 19.2°F-7.1°C 31% 9.0 mph WSW14.5 kmh WSW 22.0 mph35.4 kmh 29.95 in1014.2 mb 0.00 in0.0 mm 0.00 in/hr0.0 mm/hr 0.00 in0.0 mm
06:40 AM 48.1°F8.9°C 18.9°F-7.3°C 31% 16.0 mph SW25.7 kmh SW 21.0 mph33.8 kmh 29.95 in1014.2 mb 0.00 in0.0 mm 0.00 in/hr0.0 mm/hr 0.00 in0.0 mm
06:35 AM 47.8°F8.8°C 19.3°F-7.1°C 32% 15.0 mph SW24.1 kmh SW 20.0 mph32.2 kmh 29.95 in1014.2 mb 0.00 in0.0 mm 0.00 in/hr0.0 mm/hr 0.00 in0.0 mm
06:30 AM 47.5°F8.6°C 19.1°F-7.2°C 32% 11.0 mph SW17.7 kmh SW 19.0 mph30.6 kmh 29.96 in1014.6 mb 0.00 in0.0 mm 0.00 in/hr0.0 mm/hr 0.00 in0.0 mm
06:25 AM 47.0°F8.3°C 19.4°F-7.0°C 33% 9.0 mph SW14.5 kmh SW 19.0 mph30.6 kmh 29.96 in1014.6 mb 0.00 in0.0 mm 0.00 in/hr0.0 mm/hr 0.00 in0.0 mm
06:20 AM 46.7°F8.2°C 19.1°F-7.2°C 33% 5.0 mph SW8.0 kmh SW 13.0 mph20.9 kmh 29.96 in1014.6 mb 0.00 in0.0 mm 0.00 in/hr0.0 mm/hr 0.00 in0.0 mm
06:15 AM 46.6°F8.1°C 19.7°F-6.8°C 34% 5.0 mph SW8.0 kmh SW 12.0 mph19.3 kmh 29.97 in1014.9 mb 0.00 in0.0 mm 0.00 in/hr0.0 mm/hr 0.00 in0.0 mm
06:10 AM 47.1°F8.4°C 19.4°F-7.0°C 33% 4.0 mph S6.4 kmh S 11.0 mph17.7 kmh 29.97 in1014.9 mb 0.00 in0.0 mm 0.00 in/hr0.0 mm/hr 0.00 in0.0 mm
06:05 AM 47.7°F8.7°C 19.3°F-7.1°C 32% Calm Calm 4.0 mph6.4 kmh 29.97 in1014.9 mb 0.00 in0.0 mm 0.00 in/hr0.0 mm/hr 0.00 in0.0 mm
06:00 AM 47.8°F8.8°C 18.6°F-7.4°C 31% 4.0 mph S6.4 kmh S 6.0 mph9.7 kmh 29.97 in1014.9 mb 0.00 in0.0 mm 0.00 in/hr0.0 mm/hr 0.00 in0.0 mm
05:55 AM 48.0°F8.9°C 18.8°F-7.3°C 31% 4.0 mph SSE6.4 kmh SSE 7.0 mph11.3 kmh 29.97 in1014.9 mb 0.00 in0.0 mm 0.00 in/hr0.0 mm/hr 0.00 in0.0 mm
05:50 AM 48.2°F9.0°C 18.2°F-7.7°C 30% 6.0 mph SE9.7 kmh SE 7.0 mph11.3 kmh 29.97 in1014.9 mb 0.00 in0.0 mm 0.00 in/hr0.0 mm/hr 0.00 in0.0 mm
05:45 AM 48.5°F9.2°C 17.7°F-7.9°C 29% 2.0 mph S3.2 kmh S 8.0 mph12.9 kmh 29.97 in1014.9 mb 0.00 in0.0 mm 0.00 in/hr0.0 mm/hr 0.00 in0.0 mm
05:40 AM 48.5°F9.2°C 17.7°F-7.9°C 29% Calm Calm 8.0 mph12.9 kmh 29.98 in1015.2 mb 0.00 in0.0 mm 0.00 in/hr0.0 mm/hr 0.00 in0.0 mm
05:35 AM 48.3°F9.1°C 17.5°F-8.1°C 29% 4.0 mph SW6.4 kmh SW 4.0 mph6.4 kmh 29.98 in1015.2 mb 0.00 in0.0 mm 0.00 in/hr0.0 mm/hr 0.00 in0.0 mm
05:30 AM 48.5°F9.2°C 17.7°F-7.9°C 29% Calm Calm -- 29.98 in1015.2 mb 0.00 in0.0 mm 0.00 in/hr0.0 mm/hr 0.00 in0.0 mm
05:25 AM 48.7°F9.3°C 17.8°F-7.9°C 29% Calm Calm 1.0 mph1.6 kmh 29.98 in1015.2 mb 0.00 in0.0 mm 0.00 in/hr0.0 mm/hr 0.00 in0.0 mm
05:20 AM 48.7°F9.3°C 17.8°F-7.9°C 29% Calm Calm 6.0 mph9.7 kmh 29.98 in1015.2 mb 0.00 in0.0 mm 0.00 in/hr0.0 mm/hr 0.00 in0.0 mm
05:15 AM 48.3°F9.1°C 17.5°F-8.1°C 29% 6.0 mph S9.7 kmh S 8.0 mph12.9 kmh 29.97 in1014.9 mb 0.00 in0.0 mm 0.00 in/hr0.0 mm/hr 0.00 in0.0 mm
05:10 AM 48.1°F8.9°C 18.1°F-7.7°C 30% 5.0 mph S8.0 kmh S 11.0 mph17.7 kmh 29.97 in1014.9 mb 0.00 in0.0 mm 0.00 in/hr0.0 mm/hr 0.00 in0.0 mm
05:05 AM 47.9°F8.8°C 17.9°F-7.8°C 30% 5.0 mph SSE8.0 kmh SSE 6.0 mph9.7 kmh 29.98 in1015.2 mb 0.00 in0.0 mm 0.00 in/hr0.0 mm/hr 0.00 in0.0 mm
05:00 AM 48.2°F9.0°C 17.4°F-8.1°C 29% Calm Calm 1.0 mph1.6 kmh 29.98 in1015.2 mb 0.00 in0.0 mm 0.00 in/hr0.0 mm/hr 0.00 in0.0 mm
04:55 AM 48.5°F9.2°C 17.7°F-7.9°C 29% 1.0 mph WNW1.6 kmh WNW 4.0 mph6.4 kmh 29.98 in1015.2 mb 0.00 in0.0 mm 0.00 in/hr0.0 mm/hr 0.00 in0.0 mm
04:50 AM 48.5°F9.2°C 17.7°F-7.9°C 29% 1.0 mph E1.6 kmh E 2.0 mph3.2 kmh 29.98 in1015.2 mb 0.00 in0.0 mm 0.00 in/hr0.0 mm/hr 0.00 in0.0 mm
04:45 AM 48.3°F9.1°C 17.5°F-8.1°C 29% Calm Calm 2.0 mph3.2 kmh 29.97 in1014.9 mb 0.00 in0.0 mm 0.00 in/hr0.0 mm/hr 0.00 in0.0 mm
04:40 AM 48.0°F8.9°C 17.2°F-8.2°C 29% Calm Calm 2.0 mph3.2 kmh 29.97 in1014.9 mb 0.00 in0.0 mm 0.00 in/hr0.0 mm/hr 0.00 in0.0 mm
04:35 AM 48.0°F8.9°C 17.2°F-8.2°C 29% Calm Calm 1.0 mph1.6 kmh 29.97 in1014.9 mb 0.00 in0.0 mm 0.00 in/hr0.0 mm/hr 0.00 in0.0 mm
04:30 AM 48.0°F8.9°C 17.2°F-8.2°C 29% Calm Calm 2.0 mph3.2 kmh 29.97 in1014.9 mb 0.00 in0.0 mm 0.00 in/hr0.0 mm/hr 0.00 in0.0 mm
04:25 AM 48.0°F8.9°C 18.0°F-7.8°C 30% Calm Calm 3.0 mph4.8 kmh 29.97 in1014.9 mb 0.00 in0.0 mm 0.00 in/hr0.0 mm/hr 0.00 in0.0 mm
04:20 AM 47.8°F8.8°C 17.8°F-7.9°C 30% 3.0 mph SE4.8 kmh SE 6.0 mph9.7 kmh 29.97 in1014.9 mb 0.00 in0.0 mm 0.00 in/hr0.0 mm/hr 0.00 in0.0 mm
04:15 AM 47.8°F8.8°C 17.8°F-7.9°C 30% 3.0 mph SE4.8 kmh SE 6.0 mph9.7 kmh 29.97 in1014.9 mb 0.00 in0.0 mm 0.00 in/hr0.0 mm/hr 0.00 in0.0 mm
04:10 AM 48.1°F8.9°C 18.1°F-7.7°C 30% 2.0 mph ESE3.2 kmh ESE 4.0 mph6.4 kmh 29.97 in1014.9 mb 0.00 in0.0 mm 0.00 in/hr0.0 mm/hr 0.00 in0.0 mm
04:05 AM 48.4°F9.1°C 17.6°F-8.0°C 29% Calm Calm 7.0 mph11.3 kmh 29.96 in1014.6 mb 0.00 in0.0 mm 0.00 in/hr0.0 mm/hr 0.00 in0.0 mm
04:00 AM 49.0°F9.4°C 18.1°F-7.7°C 29% Calm Calm 3.0 mph4.8 kmh 29.96 in1014.6 mb 0.00 in0.0 mm 0.00 in/hr0.0 mm/hr 0.00 in0.0 mm
03:55 AM 49.4°F9.7°C 18.4°F-7.6°C 29% Calm Calm 13.0 mph20.9 kmh 29.97 in1014.9 mb 0.00 in0.0 mm 0.00 in/hr0.0 mm/hr 0.00 in0.0 mm
03:50 AM 49.4°F9.7°C 17.6°F-8.0°C 28% 10.0 mph SW16.1 kmh SW 10.0 mph16.1 kmh 29.97 in1014.9 mb 0.00 in0.0 mm 0.00 in/hr0.0 mm/hr 0.00 in0.0 mm
03:45 AM 49.1°F9.5°C 18.2°F-7.7°C 29% 8.0 mph SSW12.9 kmh SSW 9.0 mph14.5 kmh 29.97 in1014.9 mb 0.00 in0.0 mm 0.00 in/hr0.0 mm/hr 0.00 in0.0 mm
03:40 AM 49.2°F9.6°C 18.3°F-7.6°C 29% Calm Calm 6.0 mph9.7 kmh 29.97 in1014.9 mb 0.00 in0.0 mm 0.00 in/hr0.0 mm/hr 0.00 in0.0 mm
03:35 AM 49.4°F9.7°C 18.4°F-7.6°C 29% 3.0 mph WSW4.8 kmh WSW 11.0 mph17.7 kmh 29.96 in1014.6 mb 0.00 in0.0 mm 0.00 in/hr0.0 mm/hr 0.00 in0.0 mm
03:30 AM 49.5°F9.7°C 18.5°F-7.5°C 29% 3.0 mph SW4.8 kmh SW 14.0 mph22.5 kmh 29.97 in1014.9 mb 0.00 in0.0 mm 0.00 in/hr0.0 mm/hr 0.00 in0.0 mm
03:25 AM 49.6°F9.8°C 17.8°F-7.9°C 28% 6.0 mph W9.7 kmh W 15.0 mph24.1 kmh 29.96 in1014.6 mb 0.00 in0.0 mm 0.00 in/hr0.0 mm/hr 0.00 in0.0 mm
03:20 AM 49.2°F9.6°C 18.3°F-7.6°C 29% 8.0 mph W12.9 kmh W 15.0 mph24.1 kmh 29.96 in1014.6 mb 0.00 in0.0 mm 0.00 in/hr0.0 mm/hr 0.00 in0.0 mm
03:15 AM 48.7°F9.3°C 17.8°F-7.9°C 29% 1.0 mph WSW1.6 kmh WSW 12.0 mph19.3 kmh 29.97 in1014.9 mb 0.00 in0.0 mm 0.00 in/hr0.0 mm/hr 0.00 in0.0 mm
03:10 AM 48.3°F9.1°C 18.3°F-7.6°C 30% 3.0 mph WSW4.8 kmh WSW 17.0 mph27.4 kmh 29.97 in1014.9 mb 0.00 in0.0 mm 0.00 in/hr0.0 mm/hr 0.00 in0.0 mm
03:05 AM 47.8°F8.8°C 17.8°F-7.9°C 30% 9.0 mph S14.5 kmh S 17.0 mph27.4 kmh 29.97 in1014.9 mb 0.00 in0.0 mm 0.00 in/hr0.0 mm/hr 0.00 in0.0 mm
03:00 AM 47.2°F8.4°C 18.1°F-7.7°C 31% 4.0 mph SW6.4 kmh SW 6.0 mph9.7 kmh 29.97 in1014.9 mb 0.00 in0.0 mm 0.00 in/hr0.0 mm/hr 0.00 in0.0 mm
02:55 AM 47.2°F8.4°C 18.1°F-7.7°C 31% 2.0 mph W3.2 kmh W 8.0 mph12.9 kmh 29.97 in1014.9 mb 0.00 in0.0 mm 0.00 in/hr0.0 mm/hr 0.00 in0.0 mm
02:50 AM 47.3°F8.5°C 18.2°F-7.7°C 31% Calm Calm 9.0 mph14.5 kmh 29.98 in1015.2 mb 0.00 in0.0 mm 0.00 in/hr0.0 mm/hr 0.00 in0.0 mm
02:45 AM 47.3°F8.5°C 17.4°F-8.1°C 30% 2.0 mph S3.2 kmh S 5.0 mph8.0 kmh 29.99 in1015.6 mb 0.00 in0.0 mm 0.00 in/hr0.0 mm/hr 0.00 in0.0 mm
02:40 AM 47.3°F8.5°C 18.2°F-7.7°C 31% 4.0 mph SE6.4 kmh SE 5.0 mph8.0 kmh 29.98 in1015.2 mb 0.00 in0.0 mm 0.00 in/hr0.0 mm/hr 0.00 in0.0 mm
02:35 AM 47.4°F8.6°C 17.5°F-8.1°C 30% Calm Calm 3.0 mph4.8 kmh 29.99 in1015.6 mb 0.00 in0.0 mm 0.00 in/hr0.0 mm/hr 0.00 in0.0 mm
02:30 AM 47.4°F8.6°C 17.5°F-8.1°C 30% Calm Calm 3.0 mph4.8 kmh 29.99 in1015.6 mb 0.00 in0.0 mm 0.00 in/hr0.0 mm/hr 0.00 in0.0 mm
02:25 AM 47.7°F8.7°C 17.8°F-7.9°C 30% 1.0 mph SSE1.6 kmh SSE 3.0 mph4.8 kmh 29.99 in1015.6 mb 0.00 in0.0 mm 0.00 in/hr0.0 mm/hr 0.00 in0.0 mm
02:20 AM 48.0°F8.9°C 18.0°F-7.8°C 30% Calm Calm 5.0 mph8.0 kmh 29.99 in1015.6 mb 0.00 in0.0 mm 0.00 in/hr0.0 mm/hr 0.00 in0.0 mm
02:15 AM 47.9°F8.8°C 17.9°F-7.8°C 30% Calm Calm 10.0 mph16.1 kmh 29.98 in1015.2 mb 0.00 in0.0 mm 0.00 in/hr0.0 mm/hr 0.00 in0.0 mm
02:10 AM 47.5°F8.6°C 17.6°F-8.0°C 30% 4.0 mph SSW6.4 kmh SSW 7.0 mph11.3 kmh 29.99 in1015.6 mb 0.00 in0.0 mm 0.00 in/hr0.0 mm/hr 0.00 in0.0 mm
02:05 AM 47.5°F8.6°C 17.6°F-8.0°C 30% Calm Calm 1.0 mph1.6 kmh 29.99 in1015.6 mb 0.00 in0.0 mm 0.00 in/hr0.0 mm/hr 0.00 in0.0 mm
02:00 AM 47.5°F8.6°C 17.6°F-8.0°C 30% Calm Calm 2.0 mph3.2 kmh 29.99 in1015.6 mb 0.00 in0.0 mm 0.00 in/hr0.0 mm/hr 0.00 in0.0 mm
01:55 AM 47.6°F8.7°C 17.7°F-7.9°C 30% Calm Calm 4.0 mph6.4 kmh 29.99 in1015.6 mb 0.00 in0.0 mm 0.00 in/hr0.0 mm/hr 0.00 in0.0 mm
01:50 AM 47.5°F8.6°C 17.6°F-8.0°C 30% 1.0 mph SW1.6 kmh SW 4.0 mph6.4 kmh 29.99 in1015.6 mb 0.00 in0.0 mm 0.00 in/hr0.0 mm/hr 0.00 in0.0 mm
01:45 AM 47.1°F8.4°C 18.0°F-7.8°C 31% Calm Calm 7.0 mph11.3 kmh 29.99 in1015.6 mb 0.00 in0.0 mm 0.00 in/hr0.0 mm/hr 0.00 in0.0 mm
01:40 AM 46.9°F8.3°C 18.6°F-7.4°C 32% 2.0 mph SE3.2 kmh SE 5.0 mph8.0 kmh 29.99 in1015.6 mb 0.00 in0.0 mm 0.00 in/hr0.0 mm/hr 0.00 in0.0 mm
01:35 AM 47.0°F8.3°C 17.9°F-7.8°C 31% 2.0 mph E3.2 kmh E 3.0 mph4.8 kmh 29.99 in1015.6 mb 0.00 in0.0 mm 0.00 in/hr0.0 mm/hr 0.00 in0.0 mm
01:30 AM 47.3°F8.5°C 18.9°F-7.3°C 32% 1.0 mph E1.6 kmh E 4.0 mph6.4 kmh 29.99 in1015.6 mb 0.00 in0.0 mm 0.00 in/hr0.0 mm/hr 0.00 in0.0 mm
01:25 AM 47.6°F8.7°C 18.4°F-7.6°C 31% 2.0 mph ESE3.2 kmh ESE 7.0 mph11.3 kmh 29.99 in1015.6 mb 0.00 in0.0 mm 0.00 in/hr0.0 mm/hr 0.00 in0.0 mm
01:20 AM 47.7°F8.7°C 18.5°F-7.5°C 31% 2.0 mph SE3.2 kmh SE 8.0 mph12.9 kmh 29.99 in1015.6 mb 0.00 in0.0 mm 0.00 in/hr0.0 mm/hr 0.00 in0.0 mm
01:15 AM 47.6°F8.7°C 18.4°F-7.6°C 31% 4.0 mph SE6.4 kmh SE 4.0 mph6.4 kmh 29.99 in1015.6 mb 0.00 in0.0 mm 0.00 in/hr0.0 mm/hr 0.00 in0.0 mm
01:10 AM 47.6°F8.7°C 18.4°F-7.6°C 31% Calm Calm 3.0 mph4.8 kmh 29.99 in1015.6 mb 0.00 in0.0 mm 0.00 in/hr0.0 mm/hr 0.00 in0.0 mm
01:05 AM 47.4°F8.6°C 18.3°F-7.6°C 31% 2.0 mph SE3.2 kmh SE 3.0 mph4.8 kmh 29.99 in1015.6 mb 0.00 in0.0 mm 0.00 in/hr0.0 mm/hr 0.00 in0.0 mm
01:00 AM 47.6°F8.7°C 18.4°F-7.6°C 31% Calm Calm 9.0 mph14.5 kmh 29.99 in1015.6 mb 0.00 in0.0 mm 0.00 in/hr0.0 mm/hr 0.00 in0.0 mm
12:55 AM 47.7°F8.7°C 18.5°F-7.5°C 31% Calm Calm 9.0 mph14.5 kmh 29.99 in1015.6 mb 0.00 in0.0 mm 0.00 in/hr0.0 mm/hr 0.00 in0.0 mm
12:50 AM 47.8°F8.8°C 18.6°F-7.4°C 31% Calm Calm 1.0 mph1.6 kmh 29.98 in1015.2 mb 0.00 in0.0 mm 0.00 in/hr0.0 mm/hr 0.00 in0.0 mm
12:45 AM 47.8°F8.8°C 18.6°F-7.4°C 31% Calm Calm 5.0 mph8.0 kmh 29.99 in1015.6 mb 0.00 in0.0 mm 0.00 in/hr0.0 mm/hr 0.00 in0.0 mm
12:40 AM 48.0°F8.9°C 18.8°F-7.3°C 31% 3.0 mph SE4.8 kmh SE 5.0 mph8.0 kmh 29.98 in1015.2 mb 0.00 in0.0 mm 0.00 in/hr0.0 mm/hr 0.00 in0.0 mm
12:35 AM 48.2°F9.0°C 19.0°F-7.2°C 31% Calm Calm 2.0 mph3.2 kmh 29.98 in1015.2 mb 0.00 in0.0 mm 0.00 in/hr0.0 mm/hr 0.00 in0.0 mm
12:30 AM 48.6°F9.2°C 19.3°F-7.1°C 31% 1.0 mph SE1.6 kmh SE 3.0 mph4.8 kmh 29.98 in1015.2 mb 0.00 in0.0 mm 0.00 in/hr0.0 mm/hr 0.00 in0.0 mm
12:25 AM 48.6°F9.2°C 18.5°F-7.5°C 30% 3.0 mph S4.8 kmh S 8.0 mph12.9 kmh 29.98 in1015.2 mb 0.00 in0.0 mm 0.00 in/hr0.0 mm/hr 0.00 in0.0 mm
12:20 AM 48.5°F9.2°C 19.2°F-7.1°C 31% 8.0 mph S12.9 kmh S 9.0 mph14.5 kmh 29.98 in1015.2 mb 0.00 in0.0 mm 0.00 in/hr0.0 mm/hr 0.00 in0.0 mm
12:15 AM 48.6°F9.2°C 19.3°F-7.1°C 31% 1.0 mph SE1.6 kmh SE 7.0 mph11.3 kmh 29.99 in1015.6 mb 0.00 in0.0 mm 0.00 in/hr0.0 mm/hr 0.00 in0.0 mm
12:10 AM 48.5°F9.2°C 18.4°F-7.6°C 30% 1.0 mph SSE1.6 kmh SSE 2.0 mph3.2 kmh 29.99 in1015.6 mb 0.00 in0.0 mm 0.00 in/hr0.0 mm/hr 0.00 in0.0 mm
12:05 AM 48.7°F9.3°C 18.6°F-7.4°C 30% Calm Calm 3.0 mph4.8 kmh 29.98 in1015.2 mb 0.00 in0.0 mm 0.00 in/hr0.0 mm/hr 0.00 in0.0 mm
12:00 AM 49.1°F9.5°C 19.0°F-7.2°C 30% 2.0 mph SSE3.2 kmh SSE 6.0 mph9.7 kmh 29.99 in1015.6 mb 0.00 in0.0 mm 0.00 in/hr0.0 mm/hr 0.00 in0.0 mm